sensor_id;sensor_type;location;lat;lon;timestamp;pressure;altitude;pressure_sealevel;temperature;humidity
31337;BME280;22846;42.654;23.314;2024-03-25T00:01:07;93287.69;;;24.66;52.58
31337;BME280;22846;42.654;23.314;2024-03-25T00:03:32;93286.19;;;24.65;52.57
31337;BME280;22846;42.654;23.314;2024-03-25T00:05:59;93271.75;;;24.65;52.30
31337;BME280;22846;42.654;23.314;2024-03-25T00:08:24;93279.19;;;24.64;52.03
31337;BME280;22846;42.654;23.314;2024-03-25T00:10:49;93271.75;;;24.65;52.60
31337;BME280;22846;42.654;23.314;2024-03-25T00:13:15;93272.22;;;24.63;52.34
31337;BME280;22846;42.654;23.314;2024-03-25T00:15:40;93260.09;;;24.64;52.17
31337;BME280;22846;42.654;23.314;2024-03-25T00:18:07;93258.56;;;24.63;52.24
31337;BME280;22846;42.654;23.314;2024-03-25T00:20:32;93257.06;;;24.62;52.10
31337;BME280;22846;42.654;23.314;2024-03-25T00:22:57;93263.75;;;24.61;52.04
31337;BME280;22846;42.654;23.314;2024-03-25T00:25:23;93261.78;;;24.62;52.29
31337;BME280;22846;42.654;23.314;2024-03-25T00:27:48;93253.59;;;24.62;52.79
31337;BME280;22846;42.654;23.314;2024-03-25T00:30:13;93246.63;;;24.61;52.42
31337;BME280;22846;42.654;23.314;2024-03-25T00:32:39;93246.63;;;24.61;52.56
31337;BME280;22846;42.654;23.314;2024-03-25T00:35:05;93247.06;;;24.59;52.44
31337;BME280;22846;42.654;23.314;2024-03-25T00:37:31;93244.34;;;24.59;52.29
31337;BME280;22846;42.654;23.314;2024-03-25T00:39:56;93247.06;;;24.59;52.44
31337;BME280;22846;42.654;23.314;2024-03-25T00:42:21;93236.13;;;24.59;52.48
31337;BME280;22846;42.654;23.314;2024-03-25T00:44:47;93237.38;;;24.58;52.26
31337;BME280;22846;42.654;23.314;2024-03-25T00:49:56;93241.34;;;24.57;52.27
31337;BME280;22846;42.654;23.314;2024-03-25T00:52:22;93249.25;;;24.55;52.25
31337;BME280;22846;42.654;23.314;2024-03-25T00:54:47;93223.41;;;24.42;52.55
31337;BME280;22846;42.654;23.314;2024-03-25T00:57:12;93239.84;;;24.56;52.25
31337;BME280;22846;42.654;23.314;2024-03-25T00:59:38;93228.03;;;24.50;52.63
31337;BME280;22846;42.654;23.314;2024-03-25T01:02:04;93246.53;;;24.55;52.53
31337;BME280;22846;42.654;23.314;2024-03-25T01:04:29;93239.84;;;24.56;52.36
31337;BME280;22846;42.654;23.314;2024-03-25T01:06:55;93232.09;;;24.55;51.99
31337;BME280;22846;42.654;23.314;2024-03-25T01:09:20;93224.66;;;24.55;52.56
31337;BME280;22846;42.654;23.314;2024-03-25T01:11:47;93220.44;;;24.54;52.14
31337;BME280;22846;42.654;23.314;2024-03-25T01:14:12;93205.25;;;24.53;52.27
31337;BME280;22846;42.654;23.314;2024-03-25T01:16:38;93195.09;;;24.54;51.92
31337;BME280;22846;42.654;23.314;2024-03-25T01:19:03;93186.16;;;24.53;51.89
31337;BME280;22846;42.654;23.314;2024-03-25T01:21:29;93190.88;;;24.53;51.79
31337;BME280;22846;42.654;23.314;2024-03-25T01:23:56;93173.34;;;24.45;51.87
31337;BME280;22846;42.654;23.314;2024-03-25T01:26:21;93186.06;;;24.48;52.15
31337;BME280;22846;42.654;23.314;2024-03-25T01:28:47;93194.53;;;24.50;52.04
31337;BME280;22846;42.654;23.314;2024-03-25T01:31:12;93204.22;;;24.51;51.80
31337;BME280;22846;42.654;23.314;2024-03-25T01:33:38;93191.06;;;24.49;51.92
31337;BME280;22846;42.654;23.314;2024-03-25T01:36:04;93199.25;;;24.49;52.16
31337;BME280;22846;42.654;23.314;2024-03-25T01:38:30;93201.22;;;24.49;51.83
31337;BME280;22846;42.654;23.314;2024-03-25T01:41:07;93214.13;;;24.48;51.77
31337;BME280;22846;42.654;23.314;2024-03-25T01:43:32;93204.44;;;24.47;51.61
31337;BME280;22846;42.654;23.314;2024-03-25T01:45:58;93203.22;;;24.48;51.71
31337;BME280;22846;42.654;23.314;2024-03-25T01:48:23;93198.97;;;24.47;51.63
31337;BME280;22846;42.654;23.314;2024-03-25T01:50:48;93198.97;;;24.47;51.68
31337;BME280;22846;42.654;23.314;2024-03-25T01:53:14;93200.94;;;24.47;51.84
31337;BME280;22846;42.654;23.314;2024-03-25T01:55:40;93208.38;;;24.46;52.18
31337;BME280;22846;42.654;23.314;2024-03-25T01:58:07;93207.59;;;24.46;52.00
31337;BME280;22846;42.654;23.314;2024-03-25T02:00:33;93216.56;;;24.46;51.76
31337;BME280;22846;42.654;23.314;2024-03-25T02:02:58;93220.53;;;24.45;52.09
31337;BME280;22846;42.654;23.314;2024-03-25T02:05:24;93234.19;;;24.45;51.70
31337;BME280;22846;42.654;23.314;2024-03-25T02:07:50;93241.63;;;24.45;51.81
31337;BME280;22846;42.654;23.314;2024-03-25T02:10:16;93237.38;;;24.44;51.78
31337;BME280;22846;42.654;23.314;2024-03-25T02:12:43;93242.84;;;24.44;52.08
31337;BME280;22846;42.654;23.314;2024-03-25T02:15:09;93239.34;;;24.43;51.82
31337;BME280;22846;42.654;23.314;2024-03-25T02:17:36;93252.22;;;24.43;52.09
31337;BME280;22846;42.654;23.314;2024-03-25T02:20:02;93243.28;;;24.42;51.64
31337;BME280;22846;42.654;23.314;2024-03-25T02:22:31;93241.75;;;24.41;51.62
31337;BME280;22846;42.654;23.314;2024-03-25T02:24:57;93237.06;;;24.42;51.69
31337;BME280;22846;42.654;23.314;2024-03-25T02:27:25;93239.81;;;24.42;51.87
31337;BME280;22846;42.654;23.314;2024-03-25T02:29:50;93230.09;;;24.41;51.76
31337;BME280;22846;42.654;23.314;2024-03-25T02:32:16;93237.53;;;24.40;51.90
31337;BME280;22846;42.654;23.314;2024-03-25T02:34:45;93234.53;;;24.38;51.76
31337;BME280;22846;42.654;23.314;2024-03-25T02:37:11;93236.03;;;24.39;51.55
31337;BME280;22846;42.654;23.314;2024-03-25T02:39:37;93239.50;;;24.40;51.84
31337;BME280;22846;42.654;23.314;2024-03-25T02:42:03;93241.50;;;24.39;52.05
31337;BME280;22846;42.654;23.314;2024-03-25T02:44:30;93232.28;;;24.37;51.96
31337;BME280;22846;42.654;23.314;2024-03-25T02:46:56;93224.25;;;24.33;51.62
31337;BME280;22846;42.654;23.314;2024-03-25T02:49:22;93238.47;;;24.37;51.85
31337;BME280;22846;42.654;23.314;2024-03-25T02:51:47;93245.44;;;24.38;51.28
31337;BME280;22846;42.654;23.314;2024-03-25T02:54:12;93248.66;;;24.37;51.93
31337;BME280;22846;42.654;23.314;2024-03-25T02:56:39;93255.59;;;24.38;51.58
31337;BME280;22846;42.654;23.314;2024-03-25T02:59:05;93254.84;;;24.37;51.84
31337;BME280;22846;42.654;23.314;2024-03-25T03:01:30;93264.28;;;24.36;51.65
31337;BME280;22846;42.654;23.314;2024-03-25T03:03:56;93257.59;;;24.37;52.11
31337;BME280;22846;42.654;23.314;2024-03-25T03:06:21;93258.81;;;24.36;51.98
31337;BME280;22846;42.654;23.314;2024-03-25T03:08:47;93270.50;;;24.37;51.52
31337;BME280;22846;42.654;23.314;2024-03-25T03:11:13;93277.19;;;24.36;51.89
31337;BME280;22846;42.654;23.314;2024-03-25T03:13:38;93270.50;;;24.37;51.94
31337;BME280;22846;42.654;23.314;2024-03-25T03:16:04;93270.94;;;24.35;51.36
31337;BME280;22846;42.654;23.314;2024-03-25T03:18:30;93267.38;;;24.29;51.49
31337;BME280;22846;42.654;23.314;2024-03-25T03:20:55;93268.22;;;24.35;51.78
31337;BME280;22846;42.654;23.314;2024-03-25T03:23:22;93265.50;;;24.35;51.37
31337;BME280;22846;42.654;23.314;2024-03-25T03:25:47;93261.91;;;24.29;52.17
31337;BME280;22846;42.654;23.314;2024-03-25T03:28:12;93273.38;;;24.33;51.64
31337;BME280;22846;42.654;23.314;2024-03-25T03:30:40;93279.13;;;24.35;51.59
31337;BME280;22846;42.654;23.314;2024-03-25T03:33:05;93280.34;;;24.34;51.73
31337;BME280;22846;42.654;23.314;2024-03-25T03:35:35;93277.38;;;24.32;51.30
31337;BME280;22846;42.654;23.314;2024-03-25T03:38:01;93282.34;;;24.34;51.83
31337;BME280;22846;42.654;23.314;2024-03-25T03:40:26;93275.84;;;24.31;51.46
31337;BME280;22846;42.654;23.314;2024-03-25T03:42:52;93273.13;;;24.31;51.61
31337;BME280;22846;42.654;23.314;2024-03-25T03:45:17;93281.56;;;24.33;51.65
31337;BME280;22846;42.654;23.314;2024-03-25T03:47:42;93280.84;;;24.33;51.53
31337;BME280;22846;42.654;23.314;2024-03-25T03:50:09;93291.75;;;24.33;51.25
31337;BME280;22846;42.654;23.314;2024-03-25T03:52:34;93288.28;;;24.32;51.20
31337;BME280;22846;42.654;23.314;2024-03-25T03:55:00;93288.28;;;24.32;51.43
31337;BME280;22846;42.654;23.314;2024-03-25T03:57:25;93287.50;;;24.32;51.81
31337;BME280;22846;42.654;23.314;2024-03-25T03:59:53;93294.97;;;24.31;51.53
31337;BME280;22846;42.654;23.314;2024-03-25T04:02:20;93297.41;;;24.29;51.41
31337;BME280;22846;42.654;23.314;2024-03-25T04:04:45;93308.63;;;24.31;51.89
31337;BME280;22846;42.654;23.314;2024-03-25T04:07:10;93316.03;;;24.31;51.74
31337;BME280;22846;42.654;23.314;2024-03-25T04:09:36;93322.28;;;24.31;51.49
31337;BME280;22846;42.654;23.314;2024-03-25T04:12:01;93312.56;;;24.30;51.53
31337;BME280;22846;42.654;23.314;2024-03-25T04:14:27;93317.72;;;24.28;51.74
31337;BME280;22846;42.654;23.314;2024-03-25T04:16:52;93320.47;;;24.28;51.47
31337;BME280;22846;42.654;23.314;2024-03-25T04:19:19;93315.94;;;24.25;51.32
31337;BME280;22846;42.654;23.314;2024-03-25T04:21:44;93325.19;;;24.28;51.19
31337;BME280;22846;42.654;23.314;2024-03-25T04:24:10;93324.69;;;24.29;51.28
31337;BME280;22846;42.654;23.314;2024-03-25T04:26:35;93331.84;;;24.27;51.39
31337;BME280;22846;42.654;23.314;2024-03-25T04:29:00;93340.78;;;24.27;51.50
31337;BME280;22846;42.654;23.314;2024-03-25T04:31:26;93344.28;;;24.28;51.66
31337;BME280;22846;42.654;23.314;2024-03-25T04:33:51;93343.53;;;24.27;51.59
31337;BME280;22846;42.654;23.314;2024-03-25T04:36:17;93361.88;;;24.27;51.79
31337;BME280;22846;42.654;23.314;2024-03-25T04:38:42;93364.63;;;24.27;51.57
31337;BME280;22846;42.654;23.314;2024-03-25T04:41:07;93378.28;;;24.27;51.34
31337;BME280;22846;42.654;23.314;2024-03-25T04:43:33;93378.72;;;24.25;51.16
31337;BME280;22846;42.654;23.314;2024-03-25T04:46:00;93381.44;;;24.25;51.31
31337;BME280;22846;42.654;23.314;2024-03-25T04:48:26;93386.72;;;24.29;50.83
31337;BME280;22846;42.654;23.314;2024-03-25T04:50:51;93395.81;;;24.35;51.42
31337;BME280;22846;42.654;23.314;2024-03-25T04:53:17;93391.38;;;24.37;52.24
31337;BME280;22846;42.654;23.314;2024-03-25T04:55:42;93397.13;;;24.39;51.95
31337;BME280;22846;42.654;23.314;2024-03-25T04:58:08;93389.69;;;24.40;52.00
31337;BME280;22846;42.654;23.314;2024-03-25T05:00:34;93394.41;;;24.39;50.53
31337;BME280;22846;42.654;23.314;2024-03-25T05:02:59;93395.16;;;24.40;50.55
31337;BME280;22846;42.654;23.314;2024-03-25T05:05:25;93391.34;;;24.46;50.68
31337;BME280;22846;42.654;23.314;2024-03-25T05:07:50;93388.34;;;24.59;50.47
31337;BME280;22846;42.654;23.314;2024-03-25T05:10:15;93395.06;;;24.72;50.34
31337;BME280;22846;42.654;23.314;2024-03-25T05:12:41;93403.31;;;24.86;50.10
31337;BME280;22846;42.654;23.314;2024-03-25T05:15:06;93406.22;;;24.97;49.73
31337;BME280;22846;42.654;23.314;2024-03-25T05:17:32;93407.94;;;25.09;49.53
31337;BME280;22846;42.654;23.314;2024-03-25T05:19:57;93400.41;;;25.19;49.34
31337;BME280;22846;42.654;23.314;2024-03-25T05:22:22;93410.03;;;25.29;48.61
31337;BME280;22846;42.654;23.314;2024-03-25T05:24:48;93414.09;;;25.33;48.80
31337;BME280;22846;42.654;23.314;2024-03-25T05:27:13;93413.25;;;25.42;48.90
31337;BME280;22846;42.654;23.314;2024-03-25T05:29:38;93404.66;;;25.49;48.54
31337;BME280;22846;42.654;23.314;2024-03-25T05:32:04;93421.66;;;25.53;48.39
31337;BME280;22846;42.654;23.314;2024-03-25T05:34:30;93419.44;;;25.57;48.11
31337;BME280;22846;42.654;23.314;2024-03-25T05:36:57;93397.28;;;25.55;48.08
31337;BME280;22846;42.654;23.314;2024-03-25T05:39:22;93430.59;;;25.67;48.10
31337;BME280;22846;42.654;23.314;2024-03-25T05:41:48;93432.38;;;25.70;47.35
31337;BME280;22846;42.654;23.314;2024-03-25T05:44:14;93431.81;;;25.66;46.79
31337;BME280;22846;42.654;23.314;2024-03-25T05:46:39;93443.44;;;25.62;47.77
31337;BME280;22846;42.654;23.314;2024-03-25T05:49:05;93448.03;;;25.56;49.36
31337;BME280;22846;42.654;23.314;2024-03-25T05:51:31;93446.91;;;25.48;50.05
31337;BME280;22846;42.654;23.314;2024-03-25T05:54:00;93457.50;;;25.40;49.95
31337;BME280;22846;42.654;23.314;2024-03-25T05:56:26;93461.06;;;25.32;50.03
31337;BME280;22846;42.654;23.314;2024-03-25T05:58:59;93466.91;;;25.25;50.32
31337;BME280;22846;42.654;23.314;2024-03-25T06:01:25;93466.03;;;25.19;50.48
31337;BME280;22846;42.654;23.314;2024-03-25T06:03:50;93465.47;;;25.15;49.94
31337;BME280;22846;42.654;23.314;2024-03-25T06:06:15;93437.69;;;24.93;50.56
31337;BME280;22846;42.654;23.314;2024-03-25T06:08:41;93476.94;;;25.04;50.24
31337;BME280;22846;42.654;23.314;2024-03-25T06:11:06;93471.34;;;24.99;49.49
31337;BME280;22846;42.654;23.314;2024-03-25T06:13:32;93476.25;;;24.95;49.77
31337;BME280;22846;42.654;23.314;2024-03-25T06:15:58;93483.88;;;24.91;50.02
31337;BME280;22846;42.654;23.314;2024-03-25T06:18:23;93478.84;;;24.89;49.71
31337;BME280;22846;42.654;23.314;2024-03-25T06:20:49;93479.03;;;24.86;49.23
31337;BME280;22846;42.654;23.314;2024-03-25T06:23:23;93481.97;;;24.82;49.87
31337;BME280;22846;42.654;23.314;2024-03-25T06:25:50;93496.09;;;24.81;49.96
31337;BME280;22846;42.654;23.314;2024-03-25T06:28:15;93497.78;;;24.78;49.51
31337;BME280;22846;42.654;23.314;2024-03-25T06:30:41;93497.97;;;24.75;49.38
31337;BME280;22846;42.654;23.314;2024-03-25T06:33:25;93507.38;;;24.74;49.53
31337;BME280;22846;42.654;23.314;2024-03-25T06:36:09;93505.88;;;24.73;48.42
31337;BME280;22846;42.654;23.314;2024-03-25T06:38:34;93503.13;;;24.73;48.65
31337;BME280;22846;42.654;23.314;2024-03-25T06:40:59;93511.34;;;24.73;48.17
31337;BME280;22846;42.654;23.314;2024-03-25T06:43:25;93510.56;;;24.73;48.95
31337;BME280;22846;42.654;23.314;2024-03-25T06:45:50;93513.28;;;24.73;48.97
31337;BME280;22846;42.654;23.314;2024-03-25T06:48:15;93511.34;;;24.73;48.56
31337;BME280;22846;42.654;23.314;2024-03-25T06:50:41;93521.03;;;24.74;49.15
31337;BME280;22846;42.654;23.314;2024-03-25T06:53:07;93522.25;;;24.73;49.07
31337;BME280;22846;42.654;23.314;2024-03-25T06:55:32;93513.19;;;24.67;49.38
31337;BME280;22846;42.654;23.314;2024-03-25T06:57:58;93530.75;;;24.75;48.88
31337;BME280;22846;42.654;23.314;2024-03-25T07:00:23;93521.97;;;24.71;49.52
31337;BME280;22846;42.654;23.314;2024-03-25T07:02:49;93540.72;;;24.78;49.29
31337;BME280;22846;42.654;23.314;2024-03-25T07:05:14;93537.44;;;24.74;49.29
31337;BME280;22846;42.654;23.314;2024-03-25T07:07:40;93510.75;;;24.69;49.36
31337;BME280;22846;42.654;23.314;2024-03-25T07:10:06;93532.84;;;24.80;49.17
31337;BME280;22846;42.654;23.314;2024-03-25T07:12:31;93539.81;;;24.81;49.63
31337;BME280;22846;42.654;23.314;2024-03-25T07:14:57;93538.31;;;24.80;48.76
31337;BME280;22846;42.654;23.314;2024-03-25T07:17:23;93542.06;;;24.82;49.10
31337;BME280;22846;42.654;23.314;2024-03-25T07:19:48;93544.50;;;24.80;49.18
31337;BME280;22846;42.654;23.314;2024-03-25T07:22:14;93554.22;;;24.81;49.14
31337;BME280;22846;42.654;23.314;2024-03-25T07:24:39;93559.69;;;24.81;48.78
31337;BME280;22846;42.654;23.314;2024-03-25T07:27:05;93549.41;;;24.77;48.92
31337;BME280;22846;42.654;23.314;2024-03-25T07:29:31;93564.88;;;24.79;48.90
31337;BME280;22846;42.654;23.314;2024-03-25T07:31:56;93558.66;;;24.79;48.90
31337;BME280;22846;42.654;23.314;2024-03-25T07:34:21;93555.91;;;24.79;48.86
31337;BME280;22846;42.654;23.314;2024-03-25T07:36:47;93540.16;;;24.74;49.42
31337;BME280;22846;42.654;23.314;2024-03-25T07:39:14;93547.72;;;24.79;48.74
31337;BME280;22846;42.654;23.314;2024-03-25T07:41:40;93549.41;;;24.77;49.04
31337;BME280;22846;42.654;23.314;2024-03-25T07:44:05;93551.97;;;24.80;49.20
31337;BME280;22846;42.654;23.314;2024-03-25T07:46:31;93554.69;;;24.80;48.69
31337;BME280;22846;42.654;23.314;2024-03-25T07:48:56;93557.44;;;24.80;49.05
31337;BME280;22846;42.654;23.314;2024-03-25T07:51:22;93561.66;;;24.81;49.00
31337;BME280;22846;42.654;23.314;2024-03-25T07:53:47;93557.72;;;24.82;49.03
31337;BME280;22846;42.654;23.314;2024-03-25T07:56:15;93550.16;;;24.77;48.80
31337;BME280;22846;42.654;23.314;2024-03-25T07:58:41;93544.50;;;24.80;48.77
31337;BME280;22846;42.654;23.314;2024-03-25T08:01:06;93564.97;;;24.85;48.43
31337;BME280;22846;42.654;23.314;2024-03-25T08:03:31;93563.00;;;24.85;48.40
31337;BME280;22846;42.654;23.314;2024-03-25T08:05:57;93565.75;;;24.85;48.66
31337;BME280;22846;42.654;23.314;2024-03-25T08:08:22;93562.09;;;24.88;48.45
31337;BME280;22846;42.654;23.314;2024-03-25T08:10:47;93562.84;;;24.89;48.50
31337;BME280;22846;42.654;23.314;2024-03-25T08:13:13;93553.00;;;24.82;48.41
31337;BME280;22846;42.654;23.314;2024-03-25T08:15:38;93572.56;;;24.90;48.29
31337;BME280;22846;42.654;23.314;2024-03-25T08:18:04;93574.06;;;24.91;48.38
31337;BME280;22846;42.654;23.314;2024-03-25T08:20:29;93534.28;;;24.67;48.20
31337;BME280;22846;42.654;23.314;2024-03-25T08:22:55;93564.66;;;24.92;48.44
31337;BME280;22846;42.654;23.314;2024-03-25T08:25:20;93572.84;;;24.92;48.46
31337;BME280;22846;42.654;23.314;2024-03-25T08:27:45;93572.38;;;24.93;48.03
31337;BME280;22846;42.654;23.314;2024-03-25T08:30:11;93578.56;;;24.94;48.02
31337;BME280;22846;42.654;23.314;2024-03-25T08:32:37;93573.28;;;24.90;48.26
31337;BME280;22846;42.654;23.314;2024-03-25T08:35:02;93578.56;;;24.94;48.09
31337;BME280;22846;42.654;23.314;2024-03-25T08:37:28;93584.03;;;24.94;48.08
31337;BME280;22846;42.654;23.314;2024-03-25T08:39:53;93593.75;;;24.95;48.24
31337;BME280;22846;42.654;23.314;2024-03-25T08:42:18;93585.56;;;24.95;47.71
31337;BME280;22846;42.654;23.314;2024-03-25T08:44:44;93591.81;;;24.95;47.99
31337;BME280;22846;42.654;23.314;2024-03-25T08:47:09;93589.81;;;24.96;48.23
31337;BME280;22846;42.654;23.314;2024-03-25T08:52:19;93586.50;;;24.92;48.21
31337;BME280;22846;42.654;23.314;2024-03-25T08:54:44;93594.97;;;24.94;47.98
31337;BME280;22846;42.654;23.314;2024-03-25T08:57:09;93602.72;;;24.95;48.19
31337;BME280;22846;42.654;23.314;2024-03-25T08:59:35;93591.03;;;24.95;48.21
31337;BME280;22846;42.654;23.314;2024-03-25T09:02:01;93597.16;;;24.90;48.17
31337;BME280;22846;42.654;23.314;2024-03-25T09:04:26;93602.91;;;24.92;47.81
31337;BME280;22846;42.654;23.314;2024-03-25T09:06:51;93610.16;;;24.95;47.88
31337;BME280;22846;42.654;23.314;2024-03-25T09:09:17;93614.41;;;24.96;47.74
31337;BME280;22846;42.654;23.314;2024-03-25T09:12:01;93605.47;;;24.95;47.78
31337;BME280;22846;42.654;23.314;2024-03-25T09:14:29;93608.19;;;24.95;48.09
31337;BME280;22846;42.654;23.314;2024-03-25T09:16:55;93608.94;;;24.96;47.63
31337;BME280;22846;42.654;23.314;2024-03-25T09:19:20;93620.91;;;24.98;47.74
31337;BME280;22846;42.654;23.314;2024-03-25T09:21:46;93623.66;;;24.98;48.08
31337;BME280;22846;42.654;23.314;2024-03-25T09:24:11;93620.16;;;24.98;47.73
31337;BME280;22846;42.654;23.314;2024-03-25T09:26:36;93623.66;;;24.98;47.90
31337;BME280;22846;42.654;23.314;2024-03-25T09:29:02;93600.22;;;24.83;47.95
31337;BME280;22846;42.654;23.314;2024-03-25T09:31:28;93626.38;;;24.98;47.64
31337;BME280;22846;42.654;23.314;2024-03-25T09:33:53;93634.59;;;24.98;47.72
31337;BME280;22846;42.654;23.314;2024-03-25T09:36:20;93627.59;;;24.97;47.43
31337;BME280;22846;42.654;23.314;2024-03-25T09:38:45;93629.88;;;24.99;47.68
31337;BME280;22846;42.654;23.314;2024-03-25T09:41:11;93626.38;;;24.98;47.82
31337;BME280;22846;42.654;23.314;2024-03-25T09:43:43;93624.13;;;24.97;47.58
31337;BME280;22846;42.654;23.314;2024-03-25T09:46:10;93619.41;;;24.97;47.49
31337;BME280;22846;42.654;23.314;2024-03-25T09:48:36;93625.03;;;24.94;47.26
31337;BME280;22846;42.654;23.314;2024-03-25T09:51:02;93620.34;;;24.94;47.16
31337;BME280;22846;42.654;23.314;2024-03-25T09:53:28;93621.88;;;24.95;47.54
31337;BME280;22846;42.654;23.314;2024-03-25T09:55:55;93626.56;;;24.95;47.37
31337;BME280;22846;42.654;23.314;2024-03-25T09:58:21;93623.09;;;24.94;47.59
31337;BME280;22846;42.654;23.314;2024-03-25T10:00:47;93627.03;;;24.93;47.23
31337;BME280;22846;42.654;23.314;2024-03-25T10:03:13;93627.78;;;24.94;47.24
31337;BME280;22846;42.654;23.314;2024-03-25T10:05:39;93619.63;;;24.85;47.44
31337;BME280;22846;42.654;23.314;2024-03-25T10:08:05;93634.47;;;24.93;47.28
31337;BME280;22846;42.654;23.314;2024-03-25T10:10:31;93626.72;;;24.91;47.27
31337;BME280;22846;42.654;23.314;2024-03-25T10:12:56;93633.25;;;24.94;47.74
31337;BME280;22846;42.654;23.314;2024-03-25T10:15:21;93633.72;;;24.92;47.55
31337;BME280;22846;42.654;23.314;2024-03-25T10:17:49;93632.97;;;24.92;47.70
31337;BME280;22846;42.654;23.314;2024-03-25T10:20:15;93648.59;;;24.91;47.15
31337;BME280;22846;42.654;23.314;2024-03-25T10:22:45;93643.91;;;24.92;47.63
31337;BME280;22846;42.654;23.314;2024-03-25T10:25:28;93643.91;;;24.92;47.57
31337;BME280;22846;42.654;23.314;2024-03-25T10:27:54;93634.94;;;24.91;47.81
31337;BME280;22846;42.654;23.314;2024-03-25T10:30:20;93636.91;;;24.91;47.37
31337;BME280;22846;42.654;23.314;2024-03-25T10:32:46;93642.38;;;24.91;47.49
31337;BME280;22846;42.654;23.314;2024-03-25T10:35:12;93631.47;;;24.91;47.92
31337;BME280;22846;42.654;23.314;2024-03-25T10:37:38;93634.63;;;24.89;47.73
31337;BME280;22846;42.654;23.314;2024-03-25T10:40:05;93635.41;;;24.90;47.32
31337;BME280;22846;42.654;23.314;2024-03-25T10:42:34;93639.34;;;24.89;47.70
31337;BME280;22846;42.654;23.314;2024-03-25T10:44:59;93636.63;;;24.89;47.55
31337;BME280;22846;42.654;23.314;2024-03-25T10:47:28;93633.88;;;24.89;47.85
31337;BME280;22846;42.654;23.314;2024-03-25T10:49:57;93624.81;;;24.83;47.47
31337;BME280;22846;42.654;23.314;2024-03-25T10:52:24;93629.34;;;24.86;47.80
31337;BME280;22846;42.654;23.314;2024-03-25T10:54:51;93632.69;;;24.90;47.68
31337;BME280;22846;42.654;23.314;2024-03-25T10:57:17;93628.44;;;24.89;48.00
31337;BME280;22846;42.654;23.314;2024-03-25T10:59:43;93627.69;;;24.88;47.86
31337;BME280;22846;42.654;23.314;2024-03-25T11:02:09;93623.88;;;24.86;47.87
31337;BME280;22846;42.654;23.314;2024-03-25T11:04:36;93636.31;;;24.87;47.20
31337;BME280;22846;42.654;23.314;2024-03-25T11:07:14;93623.00;;;24.80;48.02
31337;BME280;22846;42.654;23.314;2024-03-25T11:09:41;93633.59;;;24.87;47.41
31337;BME280;22846;42.654;23.314;2024-03-25T11:12:10;93632.06;;;24.86;47.78
31337;BME280;22846;42.654;23.314;2024-03-25T11:14:36;93629.34;;;24.86;47.65
31337;BME280;22846;42.654;23.314;2024-03-25T11:17:01;93623.13;;;24.85;47.91
31337;BME280;22846;42.654;23.314;2024-03-25T11:19:28;93621.31;;;24.82;48.14
31337;BME280;22846;42.654;23.314;2024-03-25T11:21:55;93630.56;;;24.85;48.44
31337;BME280;22846;42.654;23.314;2024-03-25T11:24:31;93625.09;;;24.85;48.47
31337;BME280;22846;42.654;23.314;2024-03-25T11:26:56;93629.81;;;24.84;47.91
31337;BME280;22846;42.654;23.314;2024-03-25T11:29:22;93631.03;;;24.83;47.95
31337;BME280;22846;42.654;23.314;2024-03-25T11:31:52;93636.97;;;24.82;47.67
31337;BME280;22846;42.654;23.314;2024-03-25T11:34:18;93643.47;;;24.84;47.78
31337;BME280;22846;42.654;23.314;2024-03-25T11:36:43;93650.94;;;24.84;47.57
31337;BME280;22846;42.654;23.314;2024-03-25T11:39:09;93649.41;;;24.83;47.47
31337;BME280;22846;42.654;23.314;2024-03-25T11:41:41;93644.41;;;24.81;47.57
31337;BME280;22846;42.654;23.314;2024-03-25T11:44:08;93643.94;;;24.83;47.82
31337;BME280;22846;42.654;23.314;2024-03-25T11:46:38;93623.22;;;24.68;47.48
31337;BME280;22846;42.654;23.314;2024-03-25T11:49:12;93653.66;;;24.84;47.70
31337;BME280;22846;42.654;23.314;2024-03-25T11:51:37;93644.22;;;24.85;47.23
31337;BME280;22846;42.654;23.314;2024-03-25T11:54:06;93655.94;;;24.85;47.55
31337;BME280;22846;42.654;23.314;2024-03-25T11:56:31;93640.44;;;24.82;47.16
31337;BME280;22846;42.654;23.314;2024-03-25T11:58:59;93650.00;;;24.87;47.21
31337;BME280;22846;42.654;23.314;2024-03-25T12:01:25;93634.81;;;24.86;47.21
31337;BME280;22846;42.654;23.314;2024-03-25T12:03:51;93647.25;;;24.87;47.23
31337;BME280;22846;42.654;23.314;2024-03-25T12:06:16;93655.00;;;24.88;47.10
31337;BME280;22846;42.654;23.314;2024-03-25T12:08:42;93646.03;;;24.88;47.36
31337;BME280;22846;42.654;23.314;2024-03-25T12:11:27;93640.88;;;24.90;47.20
31337;BME280;22846;42.654;23.314;2024-03-25T12:13:53;93649.06;;;24.90;47.17
31337;BME280;22846;42.654;23.314;2024-03-25T12:16:19;93641.34;;;24.88;47.08
31337;BME280;22846;42.654;23.314;2024-03-25T12:18:44;93646.34;;;24.90;47.46
31337;BME280;22846;42.654;23.314;2024-03-25T12:21:10;93649.38;;;24.92;47.46
31337;BME280;22846;42.654;23.314;2024-03-25T12:23:36;93649.38;;;24.92;47.10
31337;BME280;22846;42.654;23.314;2024-03-25T12:26:02;93655.56;;;24.92;47.17
31337;BME280;22846;42.654;23.314;2024-03-25T12:28:30;93656.31;;;24.93;47.01
31337;BME280;22846;42.654;23.314;2024-03-25T12:30:56;93647.38;;;24.92;47.42
31337;BME280;22846;42.654;23.314;2024-03-25T12:33:22;93649.06;;;24.90;47.08
31337;BME280;22846;42.654;23.314;2024-03-25T12:35:49;93656.63;;;24.95;47.38
31337;BME280;22846;42.654;23.314;2024-03-25T12:38:25;93657.41;;;24.95;47.21
31337;BME280;22846;42.654;23.314;2024-03-25T12:40:52;93641.78;;;24.87;47.06
31337;BME280;22846;42.654;23.314;2024-03-25T12:43:18;93651.81;;;24.90;47.02
31337;BME280;22846;42.654;23.314;2024-03-25T12:45:43;93657.41;;;24.95;47.15
31337;BME280;22846;42.654;23.314;2024-03-25T12:48:09;93654.66;;;24.95;46.69
31337;BME280;22846;42.654;23.314;2024-03-25T12:50:35;93656.31;;;24.93;46.85